createdAt,value
2018-09-28T00:00:52.719Z,22.88
2018-09-28T00:01:52.712Z,22.89
2018-09-28T00:02:52.653Z,22.88
2018-09-28T00:03:52.641Z,22.88
2018-09-28T00:04:52.630Z,22.82
2018-09-28T00:05:52.623Z,22.82
2018-09-28T00:06:52.621Z,22.88
2018-09-28T00:07:52.597Z,22.89
2018-09-28T00:08:52.601Z,22.89
2018-09-28T00:09:52.578Z,22.82
2018-09-28T00:10:52.575Z,22.82
2018-09-28T00:11:52.584Z,22.81
2018-09-28T00:12:52.544Z,22.88
2018-09-28T00:13:52.547Z,22.92
2018-09-28T00:14:52.527Z,22.84
2018-09-28T00:15:52.508Z,22.86
2018-09-28T00:16:52.497Z,22.82
2018-09-28T00:17:52.502Z,22.85
2018-09-28T00:18:52.498Z,22.91
2018-09-28T00:19:52.475Z,22.84
2018-09-28T00:20:52.453Z,22.85
2018-09-28T00:21:52.446Z,22.88
2018-09-28T00:22:52.443Z,22.86
2018-09-28T00:23:52.437Z,22.85
2018-09-28T00:24:52.409Z,22.86
2018-09-28T00:25:52.446Z,22.86
2018-09-28T00:26:52.390Z,22.85
2018-09-28T00:27:52.391Z,22.82
2018-09-28T00:28:52.372Z,22.79
2018-09-28T00:29:52.354Z,22.85
2018-09-28T00:30:52.345Z,22.84
2018-09-28T00:31:52.340Z,22.81
2018-09-28T00:32:52.340Z,22.81
2018-09-28T00:33:52.314Z,22.84
2018-09-28T00:34:52.307Z,22.81
2018-09-28T00:35:52.318Z,22.81
2018-09-28T00:36:52.287Z,22.79
2018-09-28T00:37:52.278Z,22.84
2018-09-28T00:38:52.262Z,22.79
2018-09-28T00:39:52.246Z,22.85
2018-09-28T00:40:52.238Z,22.82
2018-09-28T00:41:52.238Z,22.82
2018-09-28T00:42:52.225Z,22.81
2018-09-28T00:43:52.205Z,22.81
2018-09-28T00:44:52.190Z,22.81
2018-09-28T00:45:52.183Z,22.78
2018-09-28T00:46:52.169Z,22.84
2018-09-28T00:47:52.176Z,22.82
2018-09-28T00:48:52.144Z,22.81
2018-09-28T00:49:52.160Z,22.82
2018-09-28T00:50:52.123Z,22.81
2018-09-28T00:51:52.150Z,22.85
2018-09-28T00:52:52.124Z,22.82
2018-09-28T00:53:52.090Z,22.79
2018-09-28T00:54:52.084Z,22.81
2018-09-28T00:55:52.073Z,22.85
2018-09-28T00:56:52.056Z,22.78
2018-09-28T00:57:52.057Z,22.84
2018-09-28T00:58:52.034Z,22.81
2018-09-28T00:59:52.025Z,22.82
2018-09-28T01:00:52.019Z,22.79
2018-09-28T01:01:52.008Z,22.78
2018-09-28T01:02:52.015Z,22.79
2018-09-28T01:03:51.984Z,22.84
2018-09-28T01:04:51.990Z,22.79
2018-09-28T01:05:51.959Z,22.76
2018-09-28T01:06:59.030Z,22.76
2018-09-28T01:07:51.948Z,22.75
2018-09-28T01:08:51.934Z,22.76
2018-09-28T01:09:51.913Z,22.75
2018-09-28T01:10:51.901Z,22.75
2018-09-28T01:11:51.891Z,22.71
2018-09-28T01:12:51.902Z,22.79
2018-09-28T01:13:51.870Z,22.69
2018-09-28T01:14:51.906Z,22.70
2018-09-28T01:15:51.847Z,22.76
2018-09-28T01:16:51.839Z,22.71
2018-09-28T01:17:51.852Z,22.67
2018-09-28T01:18:51.815Z,22.79
2018-09-28T01:19:51.827Z,22.73
2018-09-28T01:20:51.793Z,22.71
2018-09-28T01:21:51.781Z,22.73
2018-09-28T01:22:51.769Z,22.75
2018-09-28T01:23:51.772Z,22.75
2018-09-28T01:24:51.747Z,22.73
2018-09-28T01:25:51.761Z,22.64
2018-09-28T01:26:51.726Z,22.73
2018-09-28T01:27:51.728Z,22.71
2018-09-28T01:28:51.718Z,22.75
2018-09-28T01:29:51.694Z,22.76
2018-09-28T01:30:51.687Z,22.70
2018-09-28T01:31:51.674Z,22.70
2018-09-28T01:32:51.666Z,22.76
2018-09-28T01:33:51.659Z,22.75
2018-09-28T01:34:51.642Z,22.78
2018-09-28T01:35:51.625Z,22.71
2018-09-28T01:36:51.616Z,22.64
2018-09-28T01:37:51.606Z,22.67
2018-09-28T01:38:51.621Z,22.76
2018-09-28T01:39:51.582Z,22.78
2018-09-28T01:40:51.582Z,22.81
2018-09-28T01:41:51.564Z,22.71
2018-09-28T01:42:51.549Z,22.75
2018-09-28T01:43:51.555Z,22.67
2018-09-28T01:44:51.525Z,22.78
2018-09-28T01:45:51.515Z,22.67
2018-09-28T01:46:51.506Z,22.76
2018-09-28T01:47:51.493Z,22.70
2018-09-28T01:48:51.502Z,22.79
2018-09-28T01:49:51.471Z,22.64
2018-09-28T01:50:51.477Z,22.75
2018-09-28T01:51:51.448Z,22.69
2018-09-28T01:52:51.437Z,22.75
2018-09-28T01:53:51.441Z,22.76
2018-09-28T01:54:51.423Z,22.64
2018-09-28T01:55:51.409Z,22.75
2018-09-28T01:56:51.393Z,22.71
2018-09-28T01:57:51.386Z,22.73
2018-09-28T01:58:51.387Z,22.75
2018-09-28T01:59:51.366Z,22.73
2018-09-28T02:00:51.349Z,22.78
2018-09-28T02:01:51.415Z,22.67
2018-09-28T02:02:51.328Z,22.61
2018-09-28T02:03:51.345Z,22.75
2018-09-28T02:04:51.306Z,22.70
2018-09-28T02:05:51.294Z,22.78
2018-09-28T02:06:51.283Z,22.73
2018-09-28T02:07:51.280Z,22.71
2018-09-28T02:08:51.273Z,22.67
2018-09-28T02:09:51.249Z,22.71
2018-09-28T02:10:51.245Z,22.76
2018-09-28T02:11:51.226Z,22.79
2018-09-28T02:12:51.221Z,22.71
2018-09-28T02:13:51.257Z,22.75
2018-09-28T02:14:51.202Z,22.69
2018-09-28T02:15:51.260Z,22.67
2018-09-28T02:16:51.175Z,22.67
2018-09-28T02:17:51.161Z,22.82
2018-09-28T02:18:51.162Z,22.73
2018-09-28T02:19:51.144Z,22.67
2018-09-28T02:20:51.131Z,22.73
2018-09-28T02:21:51.117Z,22.70
2018-09-28T02:22:51.106Z,22.70
2018-09-28T02:23:51.107Z,22.70
2018-09-28T02:24:51.100Z,22.69
2018-09-28T02:25:51.092Z,22.70
2018-09-28T02:26:51.075Z,22.75
2018-09-28T02:27:51.054Z,22.71
2018-09-28T02:28:51.052Z,22.66
2018-09-28T02:29:51.029Z,22.73
2018-09-28T02:30:51.018Z,22.76
2018-09-28T02:31:51.017Z,22.67
2018-09-28T02:32:50.999Z,22.66
2018-09-28T02:33:50.997Z,22.70
2018-09-28T02:34:50.973Z,22.73
2018-09-28T02:35:50.964Z,22.69
2018-09-28T02:36:50.963Z,22.70
2018-09-28T02:37:50.960Z,22.67
2018-09-28T02:38:50.949Z,22.75
2018-09-28T02:39:50.941Z,22.64
2018-09-28T02:40:50.907Z,22.73
2018-09-28T02:41:50.897Z,22.73
2018-09-28T02:42:50.889Z,22.73
2018-09-28T02:43:50.887Z,22.69
2018-09-28T02:44:50.872Z,22.76
2018-09-28T02:45:50.852Z,22.69
2018-09-28T02:46:50.841Z,22.67
2018-09-28T02:47:50.864Z,22.63
2018-09-28T02:48:50.831Z,22.69
2018-09-28T02:49:50.815Z,22.67
2018-09-28T02:50:50.802Z,22.71
2018-09-28T02:51:50.786Z,22.71
2018-09-28T02:52:50.778Z,22.75
2018-09-28T02:53:50.810Z,22.66
2018-09-28T02:54:50.755Z,22.64
2018-09-28T02:55:50.742Z,22.64
2018-09-28T02:56:50.762Z,22.63
2018-09-28T02:57:50.719Z,22.60
2018-09-28T02:58:50.708Z,22.73
2018-09-28T02:59:50.721Z,22.61
2018-09-28T03:00:50.691Z,22.63
2018-09-28T03:01:50.681Z,22.75
2018-09-28T03:02:50.665Z,22.67
2018-09-28T03:03:50.654Z,22.55
2018-09-28T03:04:50.655Z,22.67
2018-09-28T03:05:50.641Z,22.60
2018-09-28T03:06:50.626Z,22.60
2018-09-28T03:07:50.626Z,22.66
2018-09-28T03:08:50.599Z,22.64
2018-09-28T03:09:50.601Z,22.67
2018-09-28T03:10:50.577Z,22.63
2018-09-28T03:11:50.571Z,22.66
2018-09-28T03:12:50.555Z,22.55
2018-09-28T03:13:50.562Z,22.64
2018-09-28T03:14:50.548Z,22.57
2018-09-28T03:15:50.526Z,22.64
2018-09-28T03:16:50.530Z,22.59
2018-09-28T03:17:50.501Z,22.66
2018-09-28T03:18:50.501Z,22.55
2018-09-28T03:19:50.495Z,22.61
2018-09-28T03:20:50.468Z,22.66
2018-09-28T03:21:50.466Z,22.63
2018-09-28T03:22:50.463Z,22.54
2018-09-28T03:23:50.435Z,22.61
2018-09-28T03:24:50.437Z,22.64
2018-09-28T03:25:50.416Z,22.61
2018-09-28T03:26:50.405Z,22.66
2018-09-28T03:27:50.398Z,22.57
2018-09-28T03:28:50.384Z,22.64
2018-09-28T03:29:50.381Z,22.54
2018-09-28T03:30:50.356Z,22.64
2018-09-28T03:31:50.348Z,22.54
2018-09-28T03:32:50.337Z,22.57
2018-09-28T03:33:50.329Z,22.54
2018-09-28T03:34:50.328Z,22.64
2018-09-28T03:35:50.315Z,22.61
2018-09-28T03:36:50.305Z,22.57
2018-09-28T03:37:50.281Z,22.55
2018-09-28T03:38:50.280Z,22.55
2018-09-28T03:39:50.269Z,22.59
2018-09-28T03:40:50.250Z,22.61
2018-09-28T03:41:50.242Z,22.57
2018-09-28T03:42:50.226Z,22.57
2018-09-28T03:43:50.221Z,22.57
2018-09-28T03:44:50.224Z,22.69
2018-09-28T03:45:50.213Z,22.59
2018-09-28T03:46:50.187Z,22.64
2018-09-28T03:47:50.172Z,22.61
2018-09-28T03:48:50.162Z,22.55
2018-09-28T03:49:50.166Z,22.67
2018-09-28T03:50:50.138Z,22.60
2018-09-28T03:51:50.141Z,22.66
2018-09-28T03:52:50.114Z,22.57
2018-09-28T03:53:50.105Z,22.54
2018-09-28T03:54:50.106Z,22.61
2018-09-28T03:55:50.083Z,22.60
2018-09-28T03:56:50.076Z,22.55
2018-09-28T03:57:50.060Z,22.64
2018-09-28T03:58:50.053Z,22.55
2018-09-28T03:59:50.062Z,22.55
2018-09-28T04:00:50.028Z,22.67
2018-09-28T04:01:50.016Z,22.63
2018-09-28T04:02:50.068Z,22.66
2018-09-28T04:03:50.000Z,22.69
2018-09-28T04:04:49.998Z,22.51
2018-09-28T04:05:49.974Z,22.57
2018-09-28T04:06:49.970Z,22.59
2018-09-28T04:07:49.968Z,22.59
2018-09-28T04:08:49.957Z,22.59
2018-09-28T04:09:49.938Z,22.55
2018-09-28T04:10:49.930Z,22.67
2018-09-28T04:11:49.922Z,22.55
2018-09-28T04:12:49.916Z,22.57
2018-09-28T04:13:49.892Z,22.60
2018-09-28T04:14:49.888Z,22.59
2018-09-28T04:15:49.884Z,22.70
2018-09-28T04:16:49.850Z,22.67
2018-09-28T04:17:49.844Z,22.63
2018-09-28T04:18:49.834Z,22.60
2018-09-28T04:19:49.829Z,22.66
2018-09-28T04:20:49.809Z,22.52
2018-09-28T04:21:49.816Z,22.64
2018-09-28T04:22:49.785Z,22.59
2018-09-28T04:23:49.773Z,22.66
2018-09-28T04:24:49.776Z,22.63
2018-09-28T04:25:49.753Z,22.59
2018-09-28T04:26:49.763Z,22.59
2018-09-28T04:27:49.728Z,22.54
2018-09-28T04:28:49.717Z,22.55
2018-09-28T04:29:49.734Z,22.63
2018-09-28T04:30:49.700Z,22.64
2018-09-28T04:31:49.702Z,22.64
2018-09-28T04:32:49.681Z,22.59
2018-09-28T04:33:49.687Z,22.63
2018-09-28T04:34:49.662Z,22.67
2018-09-28T04:35:49.659Z,22.54
2018-09-28T04:36:49.631Z,22.55
2018-09-28T04:37:49.618Z,22.67
2018-09-28T04:38:49.617Z,22.55
2018-09-28T04:39:49.596Z,22.57
2018-09-28T04:40:49.639Z,22.57
2018-09-28T04:41:49.574Z,22.63
2018-09-28T04:42:49.563Z,22.61
2018-09-28T04:43:49.553Z,22.64
2018-09-28T04:44:49.547Z,22.59
2018-09-28T04:45:49.543Z,22.61
2018-09-28T04:46:49.524Z,22.61
2018-09-28T04:47:49.512Z,22.63
2018-09-28T04:48:49.504Z,22.70
2018-09-28T04:49:49.487Z,22.63
2018-09-28T04:50:49.496Z,22.63
2018-09-28T04:51:49.468Z,22.61
2018-09-28T04:52:49.457Z,22.59
2018-09-28T04:53:49.443Z,22.61
2018-09-28T04:54:49.483Z,22.57
2018-09-28T04:55:49.433Z,22.66
2018-09-28T04:56:49.414Z,22.57
2018-09-28T04:57:49.397Z,22.63
2018-09-28T04:58:49.413Z,22.60
2018-09-28T04:59:49.374Z,22.57
2018-09-28T05:00:49.378Z,22.69
2018-09-28T05:01:49.357Z,22.55
2018-09-28T05:02:49.344Z,22.63
2018-09-28T05:03:49.389Z,22.61
2018-09-28T05:04:49.321Z,22.52
2018-09-28T05:05:49.322Z,22.63
2018-09-28T05:06:49.300Z,22.61
2018-09-28T05:07:49.287Z,22.60
2018-09-28T05:08:49.276Z,22.67
2018-09-28T05:09:49.269Z,22.61
2018-09-28T05:10:49.266Z,22.60
2018-09-28T05:11:49.253Z,22.51
2018-09-28T05:12:49.232Z,22.64
2018-09-28T05:13:49.239Z,22.63
2018-09-28T05:14:49.211Z,22.61
2018-09-28T05:15:49.214Z,22.55
2018-09-28T05:16:49.192Z,22.64
2018-09-28T05:17:49.193Z,22.61
2018-09-28T05:18:49.174Z,22.55
2018-09-28T05:19:49.155Z,22.67
2018-09-28T05:20:49.156Z,22.61
2018-09-28T05:21:49.139Z,22.52
2018-09-28T05:22:49.128Z,22.57
2018-09-28T05:23:49.115Z,22.49
2018-09-28T05:24:49.101Z,22.52
2018-09-28T05:25:49.101Z,22.57
2018-09-28T05:26:49.078Z,22.52
2018-09-28T05:27:49.094Z,22.52
2018-09-28T05:28:49.058Z,22.60
2018-09-28T05:29:49.045Z,22.54
2018-09-28T05:30:53.971Z,22.52
2018-09-28T05:31:49.114Z,22.60
2018-09-28T05:32:49.144Z,22.49
2018-09-28T05:33:49.003Z,22.46
2018-09-28T05:34:48.992Z,22.49
2018-09-28T05:35:48.995Z,22.54
2018-09-28T05:36:48.970Z,22.51
2018-09-28T05:37:48.961Z,22.57
2018-09-28T05:38:48.946Z,22.52
2018-09-28T05:39:48.940Z,22.66
2018-09-28T05:40:48.953Z,22.54
2018-09-28T05:41:48.913Z,22.49
2018-09-28T05:42:48.903Z,22.57
2018-09-28T05:43:48.947Z,22.51
2018-09-28T05:44:48.883Z,22.52
2018-09-28T05:45:48.881Z,22.59
2018-09-28T05:46:48.875Z,22.46
2018-09-28T05:47:48.871Z,22.54
2018-09-28T05:48:48.843Z,22.52
2018-09-28T05:49:48.833Z,22.52
2018-09-28T05:50:48.824Z,22.48
2018-09-28T05:51:48.802Z,22.51
2018-09-28T05:52:48.791Z,22.49
2018-09-28T05:53:48.781Z,22.51
2018-09-28T05:54:48.769Z,22.52
2018-09-28T05:55:48.774Z,22.52
2018-09-28T05:56:48.752Z,22.48
2018-09-28T05:57:48.740Z,22.49
2018-09-28T05:58:48.726Z,22.51
2018-09-28T05:59:48.714Z,22.45
2018-09-28T06:00:48.736Z,22.55
2018-09-28T06:01:48.696Z,22.52
2018-09-28T06:02:48.682Z,22.52
2018-09-28T06:03:48.679Z,22.51
2018-09-28T06:04:48.676Z,22.48
2018-09-28T06:05:48.648Z,22.51
2018-09-28T06:06:48.676Z,22.51
2018-09-28T06:07:48.635Z,22.45
2018-09-28T06:08:48.617Z,22.54
2018-09-28T06:09:48.711Z,22.49
2018-09-28T06:10:48.616Z,22.52
2018-09-28T06:11:48.613Z,22.51
2018-09-28T06:12:48.580Z,22.54
2018-09-28T06:13:48.588Z,22.51
2018-09-28T06:14:48.552Z,22.49
2018-09-28T06:15:48.539Z,22.45
2018-09-28T06:16:48.549Z,22.52
2018-09-28T06:17:48.548Z,22.46
2018-09-28T06:18:48.557Z,22.41
2018-09-28T06:19:48.506Z,22.52
2018-09-28T06:20:48.485Z,22.45
2018-09-28T06:21:48.485Z,22.55
2018-09-28T06:22:48.459Z,22.55
2018-09-28T06:23:48.449Z,22.51
2018-09-28T06:24:48.441Z,22.52
2018-09-28T06:25:48.498Z,22.54
2018-09-28T06:26:48.446Z,22.48
2018-09-28T06:27:48.409Z,22.48
2018-09-28T06:28:48.394Z,22.48
2018-09-28T06:29:48.435Z,22.52
2018-09-28T06:30:48.377Z,22.55
2018-09-28T06:31:48.374Z,22.52
2018-09-28T06:32:48.362Z,22.52
2018-09-28T06:33:48.342Z,22.51
2018-09-28T06:34:48.327Z,22.48
2018-09-28T06:35:48.324Z,22.51
2018-09-28T06:36:48.345Z,22.44
2018-09-28T06:37:48.303Z,22.51
2018-09-28T06:38:48.288Z,22.52
2018-09-28T06:39:48.274Z,22.55
2018-09-28T06:40:48.262Z,22.54
2018-09-28T06:41:48.323Z,22.49
2018-09-28T06:42:48.240Z,22.44
2018-09-28T06:43:48.232Z,22.48
2018-09-28T06:44:48.280Z,22.46
2018-09-28T06:45:48.208Z,22.59
2018-09-28T06:46:48.209Z,22.52
2018-09-28T06:47:48.246Z,22.49
2018-09-28T06:48:48.178Z,22.52
2018-09-28T06:49:48.167Z,22.49
2018-09-28T06:50:48.152Z,22.49
2018-09-28T06:51:48.185Z,22.46
2018-09-28T06:52:48.131Z,22.44
2018-09-28T06:53:48.148Z,22.42
2018-09-28T06:54:48.110Z,22.46
2018-09-28T06:55:48.099Z,22.42
2018-09-28T06:56:48.099Z,22.46
2018-09-28T06:57:48.076Z,22.42
2018-09-28T06:58:48.066Z,22.42
2018-09-28T06:59:48.137Z,22.44
2018-09-28T07:00:48.043Z,22.44
2018-09-28T07:01:48.065Z,22.45
2018-09-28T07:02:48.025Z,22.42
2018-09-28T07:03:48.009Z,22.52
2018-09-28T07:04:48.000Z,22.46
2018-09-28T07:05:48.036Z,22.46
2018-09-28T07:06:47.976Z,22.49
2018-09-28T07:07:47.976Z,22.45
2018-09-28T07:08:47.960Z,22.46
2018-09-28T07:09:47.944Z,22.52
2018-09-28T07:10:47.931Z,22.46
2018-09-28T07:11:47.936Z,22.49
2018-09-28T07:12:47.939Z,22.38
2018-09-28T07:13:47.907Z,22.49
2018-09-28T07:14:47.914Z,22.46
2018-09-28T07:15:47.878Z,22.38
2018-09-28T07:16:47.926Z,22.42
2018-09-28T07:17:47.931Z,22.51
2018-09-28T07:18:47.847Z,22.49
2018-09-28T07:19:47.837Z,22.46
2018-09-28T07:20:47.823Z,22.44
2018-09-28T07:21:47.812Z,22.42
2018-09-28T07:22:47.835Z,22.45
2018-09-28T07:23:47.848Z,22.46
2018-09-28T07:24:47.875Z,22.52
2018-09-28T07:25:47.782Z,22.46
2018-09-28T07:26:47.771Z,22.41
2018-09-28T07:27:47.767Z,22.44
2018-09-28T07:28:47.735Z,22.48
2018-09-28T07:29:47.782Z,22.38
2018-09-28T07:30:47.715Z,22.36
2018-09-28T07:31:47.713Z,22.51
2018-09-28T07:32:47.708Z,22.42
2018-09-28T07:33:47.684Z,22.41
2018-09-28T07:34:47.669Z,22.39
2018-09-28T07:35:47.738Z,22.36
2018-09-28T07:36:47.739Z,22.41
2018-09-28T07:37:47.663Z,22.36
2018-09-28T07:38:47.626Z,22.42
2018-09-28T07:39:47.614Z,22.44
2018-09-28T07:40:47.623Z,22.46
2018-09-28T07:41:47.621Z,22.42
2018-09-28T07:42:47.622Z,22.44
2018-09-28T07:43:47.583Z,22.41
2018-09-28T07:44:47.560Z,22.49
2018-09-28T07:45:47.569Z,22.51
2018-09-28T07:46:47.546Z,22.49
2018-09-28T07:47:47.559Z,22.38
2018-09-28T07:48:47.558Z,22.41
2018-09-28T07:49:47.508Z,22.42
2018-09-28T07:50:47.496Z,22.46
2018-09-28T07:51:47.483Z,22.42
2018-09-28T07:52:47.476Z,22.44
2018-09-28T07:53:47.480Z,22.38
2018-09-28T07:54:47.462Z,22.44
2018-09-28T07:55:47.457Z,22.38
2018-09-28T07:56:47.427Z,22.45
2018-09-28T07:57:47.416Z,22.41
2018-09-28T07:58:47.463Z,22.41
2018-09-28T07:59:47.393Z,22.39
2018-09-28T08:00:47.390Z,22.42
2018-09-28T08:01:47.373Z,22.41
2018-09-28T08:02:47.361Z,22.41
2018-09-28T08:03:47.402Z,22.41
2018-09-28T08:04:47.338Z,22.44
2018-09-28T08:05:47.326Z,22.44
2018-09-28T08:06:47.320Z,22.38
2018-09-28T08:07:47.308Z,22.41
2018-09-28T08:08:47.321Z,22.38
2018-09-28T08:09:47.285Z,22.45
2018-09-28T08:10:47.274Z,22.41
2018-09-28T08:11:47.282Z,22.38
2018-09-28T08:12:47.250Z,22.46
2018-09-28T08:13:47.256Z,22.42
2018-09-28T08:14:47.228Z,22.44
2018-09-28T08:15:47.218Z,22.44
2018-09-28T08:16:47.209Z,22.41
2018-09-28T08:17:47.208Z,22.41
2018-09-28T08:18:47.245Z,22.44
2018-09-28T08:19:47.173Z,22.41
2018-09-28T08:20:47.162Z,22.42
2018-09-28T08:21:47.168Z,22.31
2018-09-28T08:22:47.140Z,22.36
2018-09-28T08:23:47.146Z,22.41
2018-09-28T08:24:47.190Z,22.39
2018-09-28T08:25:47.108Z,22.42
2018-09-28T08:26:47.096Z,22.39
2018-09-28T08:27:47.089Z,22.34
2018-09-28T08:28:47.085Z,22.39
2018-09-28T08:29:47.080Z,22.38
2018-09-28T08:30:47.057Z,22.34
2018-09-28T08:31:47.069Z,22.41
2018-09-28T08:32:47.042Z,22.41
2018-09-28T08:33:47.035Z,22.42
2018-09-28T08:34:47.014Z,22.44
2018-09-28T08:35:46.998Z,22.42
2018-09-28T08:36:47.018Z,22.42
2018-09-28T08:37:46.975Z,22.42
2018-09-28T08:38:46.981Z,22.36
2018-09-28T08:39:46.952Z,22.45
2018-09-28T08:40:46.954Z,22.34
2018-09-28T08:41:46.955Z,22.36
2018-09-28T08:42:46.922Z,22.42
2018-09-28T08:43:47.075Z,22.46
2018-09-28T08:44:46.924Z,22.34
2018-09-28T08:45:46.886Z,22.41
2018-09-28T08:46:46.874Z,22.38
2018-09-28T08:47:46.871Z,22.44
2018-09-28T08:48:46.879Z,22.33
2018-09-28T08:49:46.879Z,22.41
2018-09-28T08:50:46.839Z,22.45
2018-09-28T08:51:46.821Z,22.41
2018-09-28T08:52:46.834Z,22.38
2018-09-28T08:53:46.813Z,22.36
2018-09-28T08:54:46.818Z,22.41
2018-09-28T08:55:53.800Z,22.38
2018-09-28T08:56:46.769Z,22.42
2018-09-28T08:57:46.755Z,22.38
2018-09-28T08:58:46.755Z,22.29
2018-09-28T08:59:46.734Z,22.34
2018-09-28T09:00:46.720Z,22.34
2018-09-28T09:01:46.710Z,22.44
2018-09-28T09:02:46.699Z,22.31
2018-09-28T09:03:46.705Z,22.34
2018-09-28T09:04:46.677Z,22.29
2018-09-28T09:05:46.686Z,22.42
2018-09-28T09:06:46.654Z,22.31
2018-09-28T09:07:46.648Z,22.38
2018-09-28T09:08:46.652Z,22.38
2018-09-28T09:09:46.629Z,22.34
2018-09-28T09:10:46.634Z,22.31
2018-09-28T09:11:46.599Z,22.39
2018-09-28T09:12:46.590Z,22.44
2018-09-28T09:13:46.581Z,22.42
2018-09-28T09:14:46.579Z,22.42
2018-09-28T09:15:46.558Z,22.41
2018-09-28T09:16:46.546Z,22.41
2018-09-28T09:17:46.613Z,22.38
2018-09-28T09:18:46.523Z,22.36
2018-09-28T09:19:46.530Z,22.36
2018-09-28T09:20:46.500Z,22.38
2018-09-28T09:21:46.493Z,22.42
2018-09-28T09:22:46.479Z,22.39
2018-09-28T09:23:46.496Z,22.34
2018-09-28T09:24:46.468Z,22.41
2018-09-28T09:25:46.449Z,22.42
2018-09-28T09:26:46.449Z,22.38
2018-09-28T09:27:46.450Z,22.39
2018-09-28T09:28:46.412Z,22.38
2018-09-28T09:29:46.421Z,22.34
2018-09-28T09:30:46.400Z,22.39
2018-09-28T09:31:46.380Z,22.29
2018-09-28T09:32:46.370Z,22.41
2018-09-28T09:33:46.358Z,22.42
2018-09-28T09:34:46.361Z,22.31
2018-09-28T09:35:46.335Z,22.36
2018-09-28T09:36:46.326Z,22.41
2018-09-28T09:37:46.314Z,22.34
2018-09-28T09:38:46.303Z,22.27
2018-09-28T09:39:46.309Z,22.36
2018-09-28T09:40:46.284Z,22.42
2018-09-28T09:41:46.278Z,22.41
2018-09-28T09:42:46.270Z,22.38
2018-09-28T09:43:46.250Z,22.41
2018-09-28T09:44:46.253Z,22.38
2018-09-28T09:45:46.228Z,22.41
2018-09-28T09:46:46.238Z,22.36
2018-09-28T09:47:46.209Z,22.39
2018-09-28T09:48:46.195Z,22.39
2018-09-28T09:49:46.321Z,22.34
2018-09-28T09:50:46.170Z,22.38
2018-09-28T09:51:46.202Z,22.38
2018-09-28T09:52:46.149Z,22.38
2018-09-28T09:53:46.150Z,22.39
2018-09-28T09:54:46.144Z,22.38
2018-09-28T09:55:46.121Z,22.33
2018-09-28T09:56:46.114Z,22.39
2018-09-28T09:57:46.165Z,22.34
2018-09-28T09:58:46.118Z,22.41
2018-09-28T09:59:46.136Z,22.41
2018-09-28T10:00:46.062Z,22.39
2018-09-28T10:01:46.119Z,22.36
2018-09-28T10:02:46.039Z,22.39
2018-09-28T10:03:46.028Z,22.33
2018-09-28T10:04:46.030Z,22.33
2018-09-28T10:05:46.006Z,22.39
2018-09-28T10:06:46.029Z,22.38
2018-09-28T10:07:45.999Z,22.39
2018-09-28T10:08:45.985Z,22.38
2018-09-28T10:09:46.083Z,22.44
2018-09-28T10:10:45.951Z,22.42
2018-09-28T10:11:45.957Z,22.39
2018-09-28T10:12:45.941Z,22.38
2018-09-28T10:13:45.921Z,22.39
2018-09-28T10:14:45.921Z,22.39
2018-09-28T10:15:45.896Z,22.36
2018-09-28T10:16:45.916Z,22.46
2018-09-28T10:17:45.874Z,22.41
2018-09-28T10:18:45.863Z,22.38
2018-09-28T10:19:45.996Z,22.39
2018-09-28T10:20:45.843Z,22.39
2018-09-28T10:21:45.847Z,22.39
2018-09-28T10:22:45.832Z,22.42
2018-09-28T10:23:45.816Z,22.36
2018-09-28T10:24:45.810Z,22.39
2018-09-28T10:25:45.786Z,22.44
2018-09-28T10:26:45.779Z,22.41
2018-09-28T10:27:45.818Z,22.33
2018-09-28T10:28:45.827Z,22.42
2018-09-28T10:29:45.758Z,22.38
2018-09-28T10:30:45.734Z,22.39
2018-09-28T10:31:45.721Z,22.44
2018-09-28T10:32:45.712Z,22.41
2018-09-28T10:33:45.698Z,22.38
2018-09-28T10:34:45.777Z,22.36
2018-09-28T10:35:45.700Z,22.38
2018-09-28T10:36:45.664Z,22.41
2018-09-28T10:37:45.656Z,22.46
2018-09-28T10:38:45.650Z,22.39
2018-09-28T10:39:45.735Z,22.42
2018-09-28T10:40:45.685Z,22.42
2018-09-28T10:41:45.614Z,22.41
2018-09-28T10:42:45.601Z,22.41
2018-09-28T10:43:45.597Z,22.38
2018-09-28T10:44:45.577Z,22.42
2018-09-28T10:45:45.678Z,22.46
2018-09-28T10:46:45.694Z,22.41
2018-09-28T10:47:45.581Z,22.42
2018-09-28T10:48:45.536Z,22.41
2018-09-28T10:49:45.522Z,22.45
2018-09-28T10:50:45.551Z,22.42
2018-09-28T10:51:45.598Z,22.45
2018-09-28T10:52:45.613Z,22.45
2018-09-28T10:53:45.480Z,22.39
2018-09-28T10:54:45.470Z,22.39
2018-09-28T10:55:45.470Z,22.41
2018-09-28T10:56:45.444Z,22.51
2018-09-28T10:57:45.435Z,22.44
2018-09-28T10:58:45.473Z,22.46
2018-09-28T10:59:45.411Z,22.38
2018-09-28T11:00:45.414Z,22.44
2018-09-28T11:01:45.392Z,22.49
2018-09-28T11:02:45.400Z,22.46
2018-09-28T11:03:45.452Z,22.38
2018-09-28T11:04:45.483Z,22.44
2018-09-28T11:05:45.356Z,22.48
2018-09-28T11:06:45.335Z,22.38
2018-09-28T11:07:45.323Z,22.42
2018-09-28T11:08:45.315Z,22.41
2018-09-28T11:09:45.337Z,22.49
2018-09-28T11:10:45.359Z,22.38
2018-09-28T11:11:45.279Z,22.38
2018-09-28T11:12:45.269Z,22.41
2018-09-28T11:13:45.260Z,22.42
2018-09-28T11:14:45.248Z,22.38
2018-09-28T11:15:45.276Z,22.39
2018-09-28T11:16:45.224Z,22.38
2018-09-28T11:17:45.213Z,22.36
2018-09-28T11:18:45.260Z,22.42
2018-09-28T11:19:45.193Z,22.36
2018-09-28T11:20:45.197Z,22.48
2018-09-28T11:21:45.229Z,22.45
2018-09-28T11:22:45.161Z,22.38
2018-09-28T11:23:45.149Z,22.34
2018-09-28T11:24:45.138Z,22.49
2018-09-28T11:25:45.166Z,22.48
2018-09-28T11:26:45.113Z,22.45
2018-09-28T11:27:45.232Z,22.44
2018-09-28T11:28:45.093Z,22.38
2018-09-28T11:29:45.088Z,22.48
2018-09-28T11:30:45.084Z,22.42
2018-09-28T11:31:45.058Z,22.39
2018-09-28T11:32:45.046Z,22.46
2018-09-28T11:33:45.064Z,22.49
2018-09-28T11:34:45.030Z,22.48
2018-09-28T11:35:45.051Z,22.49
2018-09-28T11:36:45.004Z,22.48
2018-09-28T11:37:45.064Z,22.49
2018-09-28T11:38:44.982Z,22.49
2018-09-28T11:39:44.995Z,22.49
2018-09-28T11:40:44.972Z,22.49
2018-09-28T11:41:44.952Z,22.48
2018-09-28T11:42:44.938Z,22.49
2018-09-28T11:43:44.950Z,22.48
2018-09-28T11:44:44.923Z,22.51
2018-09-28T11:45:45.000Z,22.51
2018-09-28T11:46:44.893Z,22.46
2018-09-28T11:47:44.884Z,22.48
2018-09-28T11:48:44.894Z,22.48
2018-09-28T11:49:44.869Z,22.46
2018-09-28T11:50:44.851Z,22.46
2018-09-28T11:51:44.896Z,22.54
2018-09-28T11:52:44.831Z,22.49
2018-09-28T11:53:44.818Z,22.55
2018-09-28T11:54:44.814Z,22.52
2018-09-28T11:55:44.804Z,22.46
2018-09-28T11:56:44.802Z,22.54
2018-09-28T11:57:44.843Z,22.52
2018-09-28T11:58:44.791Z,22.52
2018-09-28T11:59:44.749Z,22.49
2018-09-28T12:00:44.739Z,22.48
2018-09-28T12:01:44.750Z,22.54
2018-09-28T12:02:44.718Z,22.52
2018-09-28T12:03:44.795Z,22.48
2018-09-28T12:04:44.696Z,22.54
2018-09-28T12:05:44.685Z,22.51
2018-09-28T12:06:44.697Z,22.48
2018-09-28T12:07:44.665Z,22.52
2018-09-28T12:08:44.652Z,22.54
2018-09-28T12:09:44.766Z,22.57
2018-09-28T12:10:44.643Z,22.45
2018-09-28T12:11:44.677Z,22.54
2018-09-28T12:12:44.682Z,22.49
2018-09-28T12:13:44.598Z,22.49
2018-09-28T12:14:44.626Z,22.52
2018-09-28T12:15:44.619Z,22.52
2018-09-28T12:16:44.574Z,22.51
2018-09-28T12:17:44.563Z,22.55
2018-09-28T12:18:44.635Z,22.51
2018-09-28T12:19:44.542Z,22.51
2018-09-28T12:20:44.526Z,22.52
2018-09-28T12:21:44.640Z,22.52
2018-09-28T12:22:44.525Z,22.52
2018-09-28T12:23:44.508Z,22.57
2018-09-28T12:24:44.563Z,22.54
2018-09-28T12:25:44.464Z,22.51
2018-09-28T12:26:44.487Z,22.49
2018-09-28T12:27:44.548Z,22.52
2018-09-28T12:28:44.431Z,22.59
2018-09-28T12:29:44.422Z,22.55
2018-09-28T12:30:44.585Z,22.52
2018-09-28T12:31:44.421Z,22.63
2018-09-28T12:32:44.405Z,22.63
2018-09-28T12:33:44.438Z,22.60
2018-09-28T12:34:44.448Z,22.60
2018-09-28T12:35:44.354Z,22.63
2018-09-28T12:36:44.442Z,22.61
2018-09-28T12:37:44.405Z,22.63
2018-09-28T12:38:44.325Z,22.63
2018-09-28T12:39:44.416Z,22.57
2018-09-28T12:40:44.299Z,22.64
2018-09-28T12:41:44.302Z,22.63
2018-09-28T12:42:44.398Z,22.71
2018-09-28T12:43:44.269Z,22.57
2018-09-28T12:44:44.275Z,22.66
2018-09-28T12:45:44.304Z,22.55
2018-09-28T12:46:44.236Z,22.57
2018-09-28T12:47:44.240Z,22.64
2018-09-28T12:48:44.253Z,22.57
2018-09-28T12:49:44.202Z,22.60
2018-09-28T12:50:44.299Z,22.69
2018-09-28T12:51:44.179Z,22.63
2018-09-28T12:52:44.176Z,22.63